Time;durP1;ratioP1;P1;durP2;ratioP2;P2;SDS_P1;SDS_P2;PMS_P1;PMS_P2;Temp;Humidity;BMP_temperature;BMP_pressure;BME280_temperature;BME280_humidity;BME280_pressure;Samples;Min_cycle;Max_cycle;Signal;HPM_P1;HPM_P2
2022/06/19 00:00:05;;;;;;;14.43;2.83;;;;;;;;;;4942228;28;20063;-74
2022/06/19 00:02:33;;;;;;;16.00;3.13;;;;;;;;;;4947319;28;20145;-74
2022/06/19 00:05:00;;;;;;;15.85;2.67;;;;;;;;;;4948716;28;20066;-74
2022/06/19 00:07:27;;;;;;;16.75;2.95;;;;;;;;;;4945870;28;20395;-74
2022/06/19 00:09:56;;;;;;;21.55;3.92;;;;;;;;;;4940859;28;20051;-74
2022/06/19 00:12:23;;;;;;;20.80;5.47;;;;;;;;;;4947156;28;20058;-74
2022/06/19 00:14:50;;;;;;;16.85;2.92;;;;;;;;;;4944492;28;20062;-74
2022/06/19 00:17:17;;;;;;;17.25;2.78;;;;;;;;;;4945097;28;20059;-74
2022/06/19 00:19:45;;;;;;;15.00;2.90;;;;;;;;;;4945672;28;20070;-74
2022/06/19 00:22:12;;;;;;;14.60;3.00;;;;;;;;;;4944674;28;20047;-74
2022/06/19 00:24:39;;;;;;;17.83;2.80;;;;;;;;;;4947198;28;20131;-74
2022/06/19 00:27:08;;;;;;;15.63;2.78;;;;;;;;;;4948100;28;20109;-74
2022/06/19 00:29:35;;;;;;;21.58;3.50;;;;;;;;;;4941695;28;20110;-74
2022/06/19 00:32:04;;;;;;;10.68;2.00;;;;;;;;;;4943067;28;20054;-74
2022/06/19 00:34:33;;;;;;;16.77;3.63;;;;;;;;;;4943176;28;20509;-74
2022/06/19 00:37:02;;;;;;;16.10;3.00;;;;;;;;;;4941159;28;20093;-74
2022/06/19 00:39:32;;;;;;;12.77;2.78;;;;;;;;;;4945921;28;20082;-74
2022/06/19 00:41:59;;;;;;;19.05;2.75;;;;;;;;;;4947127;28;20137;-74
2022/06/19 00:44:28;;;;;;;17.63;2.85;;;;;;;;;;4948119;28;20058;-74
2022/06/19 00:46:56;;;;;;;18.23;3.33;;;;;;;;;;4952992;28;20051;-74
2022/06/19 00:49:25;;;;;;;16.80;2.95;;;;;;;;;;4943855;28;20498;-74
2022/06/19 00:51:58;;;;;;;23.02;3.83;;;;;;;;;;4951758;28;20297;-74
2022/06/19 00:54:26;;;;;;;15.45;2.92;;;;;;;;;;4942326;28;20062;-74
2022/06/19 00:56:53;;;;;;;20.40;2.78;;;;;;;;;;4947667;28;20497;-74
2022/06/19 00:59:20;;;;;;;17.38;3.08;;;;;;;;;;4947281;28;20114;-74
2022/06/19 01:01:49;;;;;;;15.80;3.13;;;;;;;;;;4945019;28;20054;-74
2022/06/19 01:04:20;;;;;;;19.58;2.97;;;;;;;;;;4947704;28;20460;-74
2022/06/19 01:06:48;;;;;;;19.98;3.20;;;;;;;;;;4947342;28;20113;-74
2022/06/19 01:09:16;;;;;;;16.75;3.45;;;;;;;;;;4947675;28;20051;-74
2022/06/19 01:11:43;;;;;;;13.88;2.75;;;;;;;;;;4951769;28;20067;-74
2022/06/19 01:14:12;;;;;;;16.98;2.75;;;;;;;;;;4948387;28;20127;-74
2022/06/19 01:16:39;;;;;;;18.08;3.33;;;;;;;;;;4945311;28;20549;-74
2022/06/19 01:19:11;;;;;;;21.35;3.53;;;;;;;;;;4947520;28;20066;-74
2022/06/19 01:21:43;;;;;;;18.70;3.00;;;;;;;;;;4945407;28;20082;-74
2022/06/19 01:24:15;;;;;;;17.40;3.25;;;;;;;;;;4952022;28;20051;-74
2022/06/19 01:26:47;;;;;;;19.75;3.03;;;;;;;;;;4946950;28;20051;-74
2022/06/19 01:29:14;;;;;;;18.48;2.92;;;;;;;;;;4949343;28;20054;-74
2022/06/19 01:31:44;;;;;;;15.98;2.90;;;;;;;;;;4947928;28;20109;-74
2022/06/19 01:34:27;;;;;;;16.58;2.85;;;;;;;;;;4959651;28;20079;-74
2022/06/19 01:36:55;;;;;;;22.00;3.25;;;;;;;;;;4945578;29;20055;-74
2022/06/19 01:39:24;;;;;;;19.95;3.63;;;;;;;;;;4947501;28;20039;-74
2022/06/19 01:41:52;;;;;;;15.35;3.50;;;;;;;;;;4943281;29;20055;-74
2022/06/19 01:44:20;;;;;;;17.85;2.97;;;;;;;;;;4944243;28;20054;-74
2022/06/19 01:46:47;;;;;;;15.05;2.80;;;;;;;;;;4947655;28;20055;-74
2022/06/19 01:49:15;;;;;;;16.42;2.83;;;;;;;;;;4943030;29;20129;-74
2022/06/19 01:51:42;;;;;;;17.00;3.03;;;;;;;;;;4945733;29;20063;-74
2022/06/19 01:54:13;;;;;;;17.33;3.17;;;;;;;;;;4940631;29;20558;-74
2022/06/19 01:56:40;;;;;;;20.55;3.22;;;;;;;;;;4950455;28;20075;-74
2022/06/19 01:59:10;;;;;;;14.20;2.83;;;;;;;;;;4947690;29;20047;-74
2022/06/19 02:01:38;;;;;;;15.45;3.00;;;;;;;;;;4942849;29;20055;-74
2022/06/19 02:04:06;;;;;;;17.02;3.05;;;;;;;;;;4941562;28;20048;-74
2022/06/19 02:06:37;;;;;;;21.10;3.25;;;;;;;;;;4944813;28;20124;-74
2022/06/19 02:09:04;;;;;;;18.33;2.92;;;;;;;;;;4940773;28;20083;-74
2022/06/19 02:11:34;;;;;;;15.52;3.08;;;;;;;;;;4941000;29;20055;-74
2022/06/19 02:14:01;;;;;;;17.52;2.78;;;;;;;;;;4942123;29;20059;-74
2022/06/19 02:16:30;;;;;;;14.45;2.58;;;;;;;;;;4941573;28;20060;-74
2022/06/19 02:18:57;;;;;;;22.02;3.92;;;;;;;;;;4946258;28;20047;-74
2022/06/19 02:21:34;;;;;;;16.90;3.15;;;;;;;;;;4940189;28;20067;-74
2022/06/19 02:24:02;;;;;;;13.90;2.67;;;;;;;;;;4942493;28;20762;-74
2022/06/19 02:26:29;;;;;;;19.20;3.05;;;;;;;;;;4941553;28;20062;-74
2022/06/19 02:28:58;;;;;;;16.65;3.10;;;;;;;;;;4942637;29;20071;-74
2022/06/19 02:31:25;;;;;;;13.55;2.53;;;;;;;;;;4942613;29;20051;-74
2022/06/19 02:33:55;;;;;;;16.48;2.60;;;;;;;;;;4944995;28;20146;-74
2022/06/19 02:36:33;;;;;;;16.30;3.33;;;;;;;;;;4945649;28;20094;-74
2022/06/19 02:39:02;;;;;;;23.52;2.83;;;;;;;;;;4940759;29;20048;-74
2022/06/19 02:41:32;;;;;;;17.77;3.45;;;;;;;;;;4938183;29;20519;-74
2022/06/19 02:44:01;;;;;;;36.75;5.40;;;;;;;;;;4940505;28;20098;-74
2022/06/19 02:46:28;;;;;;;29.95;4.07;;;;;;;;;;4940689;29;20049;-74
2022/06/19 02:48:57;;;;;;;30.45;4.57;;;;;;;;;;4937661;29;20103;-74
2022/06/19 02:51:24;;;;;;;23.40;3.08;;;;;;;;;;4943085;28;20055;-74
2022/06/19 02:53:51;;;;;;;31.50;4.57;;;;;;;;;;4940191;28;20060;-74
2022/06/19 02:56:18;;;;;;;24.45;3.85;;;;;;;;;;4943679;29;20051;-74
2022/06/19 02:58:45;;;;;;;28.30;3.75;;;;;;;;;;4944159;29;20052;-74
2022/06/19 03:01:13;;;;;;;23.33;3.50;;;;;;;;;;4943540;28;20066;-74
2022/06/19 03:03:40;;;;;;;33.20;4.38;;;;;;;;;;4943692;29;20134;-74
2022/06/19 03:06:09;;;;;;;24.13;3.70;;;;;;;;;;4939669;28;20055;-74
2022/06/19 03:08:36;;;;;;;22.35;3.38;;;;;;;;;;4935631;29;20131;-74
2022/06/19 03:11:05;;;;;;;18.75;3.25;;;;;;;;;;4944529;29;20486;-74
2022/06/19 03:13:32;;;;;;;27.95;3.22;;;;;;;;;;4941484;28;20547;-74
2022/06/19 03:16:02;;;;;;;23.58;2.95;;;;;;;;;;4944692;29;20054;-74
2022/06/19 03:18:29;;;;;;;16.23;2.83;;;;;;;;;;4941349;28;20050;-74
2022/06/19 03:20:56;;;;;;;18.02;3.13;;;;;;;;;;4946899;29;20067;-74
2022/06/19 03:23:25;;;;;;;22.75;3.63;;;;;;;;;;4942557;29;20050;-74
2022/06/19 03:25:52;;;;;;;19.17;3.20;;;;;;;;;;4943793;28;20059;-74
2022/06/19 03:28:19;;;;;;;16.02;2.63;;;;;;;;;;4946739;29;20106;-74
2022/06/19 03:30:46;;;;;;;19.77;2.88;;;;;;;;;;4942112;29;20062;-74
2022/06/19 03:33:14;;;;;;;16.27;3.42;;;;;;;;;;4943649;29;20062;-74
2022/06/19 03:35:41;;;;;;;20.85;2.80;;;;;;;;;;4936809;29;20059;-74
2022/06/19 03:38:08;;;;;;;24.98;3.85;;;;;;;;;;4940743;29;20055;-74
2022/06/19 03:40:37;;;;;;;24.65;4.47;;;;;;;;;;4939868;29;20058;-74
2022/06/19 03:43:04;;;;;;;22.15;3.03;;;;;;;;;;4943123;28;21324;-74
2022/06/19 03:45:31;;;;;;;20.27;3.65;;;;;;;;;;4943730;29;20054;-74
2022/06/19 03:47:58;;;;;;;25.10;3.97;;;;;;;;;;4941330;29;20468;-74
2022/06/19 03:50:26;;;;;;;32.63;3.45;;;;;;;;;;4942752;29;20058;-74
2022/06/19 03:52:53;;;;;;;24.25;4.20;;;;;;;;;;4938741;29;20137;-74
2022/06/19 03:55:20;;;;;;;31.40;4.13;;;;;;;;;;4941173;29;20063;-73
2022/06/19 03:57:49;;;;;;;26.98;4.32;;;;;;;;;;4944862;29;20055;-73
2022/06/19 04:00:17;;;;;;;30.75;3.85;;;;;;;;;;4945809;28;20051;-73
2022/06/19 04:02:45;;;;;;;23.10;3.63;;;;;;;;;;4937885;29;20062;-73
2022/06/19 04:05:12;;;;;;;24.13;3.63;;;;;;;;;;4939917;28;20047;-73
2022/06/19 04:07:43;;;;;;;22.38;3.00;;;;;;;;;;4941577;29;20059;-73
2022/06/19 04:10:11;;;;;;;24.88;2.97;;;;;;;;;;4944770;29;20130;-73
2022/06/19 04:12:38;;;;;;;20.58;3.28;;;;;;;;;;4947815;28;20118;-73
2022/06/19 04:15:09;;;;;;;26.73;3.10;;;;;;;;;;4942892;28;20759;-73
2022/06/19 04:17:36;;;;;;;19.08;3.15;;;;;;;;;;4941945;28;20047;-73
2022/06/19 04:20:04;;;;;;;19.40;3.20;;;;;;;;;;4943597;29;20047;-73
2022/06/19 04:22:31;;;;;;;22.40;3.92;;;;;;;;;;4947348;28;20502;-73
2022/06/19 04:24:59;;;;;;;23.38;3.08;;;;;;;;;;4925594;29;20070;-74
2022/06/19 04:27:26;;;;;;;27.48;3.08;;;;;;;;;;4944829;28;20231;-74
2022/06/19 04:29:53;;;;;;;25.38;3.33;;;;;;;;;;4937431;29;20047;-74
2022/06/19 04:32:22;;;;;;;19.83;3.45;;;;;;;;;;4939860;28;20102;-74
2022/06/19 04:34:49;;;;;;;17.17;2.92;;;;;;;;;;4939405;28;20506;-74
2022/06/19 04:37:16;;;;;;;19.52;2.63;;;;;;;;;;4939323;28;20059;-74
2022/06/19 04:39:43;;;;;;;21.98;2.75;;;;;;;;;;4942040;29;20055;-74
2022/06/19 04:42:11;;;;;;;21.67;2.67;;;;;;;;;;4939815;28;20117;-74
2022/06/19 04:44:38;;;;;;;20.98;2.40;;;;;;;;;;4941219;28;20052;-74
2022/06/19 04:47:06;;;;;;;12.40;2.00;;;;;;;;;;4940433;28;20055;-73
2022/06/19 04:49:34;;;;;;;15.23;2.05;;;;;;;;;;4940839;28;20062;-73
2022/06/19 04:52:01;;;;;;;10.18;1.83;;;;;;;;;;4940017;29;20170;-73
2022/06/19 04:54:28;;;;;;;18.50;2.30;;;;;;;;;;4938623;28;20058;-73
2022/06/19 04:56:56;;;;;;;13.95;2.42;;;;;;;;;;4938582;28;20059;-73
2022/06/19 04:59:23;;;;;;;13.52;1.92;;;;;;;;;;4938081;28;21813;-73
2022/06/19 05:01:50;;;;;;;15.65;2.05;;;;;;;;;;4939122;28;20070;-73
2022/06/19 05:04:17;;;;;;;13.07;1.90;;;;;;;;;;4938959;29;20406;-73
2022/06/19 05:06:46;;;;;;;18.98;1.98;;;;;;;;;;4940636;28;20051;-73
2022/06/19 05:09:13;;;;;;;14.15;1.63;;;;;;;;;;4941347;29;20502;-73
2022/06/19 05:11:41;;;;;;;12.23;1.73;;;;;;;;;;4936000;28;20052;-73
2022/06/19 05:14:08;;;;;;;13.95;1.73;;;;;;;;;;4938891;29;20052;-73
2022/06/19 05:16:35;;;;;;;17.00;2.17;;;;;;;;;;4939076;29;20052;-73
2022/06/19 05:19:04;;;;;;;16.48;1.98;;;;;;;;;;4940482;28;20360;-73
2022/06/19 05:21:31;;;;;;;11.57;1.70;;;;;;;;;;4938296;29;20059;-73
2022/06/19 05:24:00;;;;;;;12.02;2.10;;;;;;;;;;4940597;29;20063;-73
2022/06/19 05:26:28;;;;;;;11.00;1.63;;;;;;;;;;4937207;29;20122;-73
2022/06/19 05:28:56;;;;;;;9.80;1.63;;;;;;;;;;4936839;29;20063;-73
2022/06/19 05:31:24;;;;;;;10.60;1.50;;;;;;;;;;4944667;28;20051;-73
2022/06/19 05:33:51;;;;;;;13.32;2.17;;;;;;;;;;4942438;28;20059;-73
2022/06/19 05:36:19;;;;;;;11.63;1.75;;;;;;;;;;4943023;28;20062;-73
2022/06/19 05:38:46;;;;;;;9.55;1.75;;;;;;;;;;4944242;28;20450;-73
2022/06/19 05:41:15;;;;;;;10.70;1.95;;;;;;;;;;4943836;28;20426;-73
2022/06/19 05:43:42;;;;;;;18.58;2.17;;;;;;;;;;4942572;28;20499;-73
2022/06/19 05:46:14;;;;;;;10.50;1.52;;;;;;;;;;4944471;29;20055;-73
2022/06/19 05:48:41;;;;;;;16.33;1.75;;;;;;;;;;4943055;29;20515;-73
2022/06/19 05:51:10;;;;;;;10.48;1.80;;;;;;;;;;4943090;28;20070;-73
2022/06/19 05:53:38;;;;;;;9.63;1.67;;;;;;;;;;4944751;28;20059;-73
2022/06/19 05:56:06;;;;;;;13.68;1.58;;;;;;;;;;4940764;28;20063;-73
2022/06/19 05:58:35;;;;;;;8.50;1.60;;;;;;;;;;4943928;28;20063;-73
2022/06/19 06:01:03;;;;;;;9.48;1.80;;;;;;;;;;4943225;28;20051;-73
2022/06/19 06:03:31;;;;;;;10.88;1.58;;;;;;;;;;4942432;28;20684;-73
2022/06/19 06:06:00;;;;;;;10.65;1.88;;;;;;;;;;4941367;29;20059;-73
2022/06/19 06:08:28;;;;;;;7.68;1.73;;;;;;;;;;4944517;28;20075;-74
2022/06/19 06:10:55;;;;;;;13.25;2.20;;;;;;;;;;4942315;28;20480;-74
2022/06/19 06:13:22;;;;;;;14.88;1.67;;;;;;;;;;4940907;28;20063;-74
2022/06/19 06:15:51;;;;;;;11.32;2.00;;;;;;;;;;4943837;28;20111;-74
2022/06/19 06:18:18;;;;;;;10.73;1.65;;;;;;;;;;4942436;28;20136;-74
2022/06/19 06:20:46;;;;;;;12.88;1.70;;;;;;;;;;4942425;28;20046;-74
2022/06/19 06:23:13;;;;;;;10.88;1.90;;;;;;;;;;4941049;28;20051;-74
2022/06/19 06:25:42;;;;;;;16.20;2.15;;;;;;;;;;4943352;28;20066;-74
2022/06/19 06:28:09;;;;;;;14.93;2.00;;;;;;;;;;4942899;29;20059;-74
2022/06/19 06:30:36;;;;;;;10.23;1.70;;;;;;;;;;4942497;28;20047;-74
2022/06/19 06:33:05;;;;;;;11.38;1.40;;;;;;;;;;4941147;28;20062;-74
2022/06/19 06:35:33;;;;;;;11.85;1.70;;;;;;;;;;4942944;28;20070;-74
2022/06/19 06:38:00;;;;;;;11.57;1.80;;;;;;;;;;4942354;29;20064;-74
2022/06/19 06:40:27;;;;;;;13.45;2.22;;;;;;;;;;4940912;28;20063;-74
2022/06/19 06:42:55;;;;;;;14.52;1.77;;;;;;;;;;4939938;28;20059;-74
2022/06/19 06:45:22;;;;;;;13.82;2.15;;;;;;;;;;4940715;28;20059;-74
2022/06/19 06:47:49;;;;;;;11.60;1.75;;;;;;;;;;4943035;28;20092;-74
2022/06/19 06:50:19;;;;;;;7.88;1.90;;;;;;;;;;4946394;28;20289;-74
2022/06/19 06:52:46;;;;;;;14.68;2.28;;;;;;;;;;4944314;28;20098;-74
2022/06/19 06:55:14;;;;;;;10.93;1.83;;;;;;;;;;4949740;28;20563;-74
2022/06/19 06:57:42;;;;;;;9.07;1.58;;;;;;;;;;4947150;29;20055;-74
2022/06/19 07:00:18;;;;;;;10.68;1.85;;;;;;;;;;4949266;28;20047;-74
2022/06/19 07:02:45;;;;;;;8.38;2.03;;;;;;;;;;4947001;29;20063;-74
2022/06/19 07:05:13;;;;;;;19.13;1.77;;;;;;;;;;4946232;29;20070;-74
2022/06/19 07:07:41;;;;;;;12.20;2.10;;;;;;;;;;4946394;28;20070;-74
2022/06/19 07:10:09;;;;;;;9.25;1.50;;;;;;;;;;4948011;28;20054;-74
2022/06/19 07:12:36;;;;;;;14.23;2.13;;;;;;;;;;4949774;28;20074;-74
2022/06/19 07:15:04;;;;;;;9.80;1.70;;;;;;;;;;4948501;28;20062;-74
2022/06/19 07:17:31;;;;;;;14.73;1.92;;;;;;;;;;4949522;29;20105;-74
2022/06/19 07:19:58;;;;;;;10.27;2.22;;;;;;;;;;4947290;28;20102;-74
2022/06/19 07:22:25;;;;;;;10.80;1.77;;;;;;;;;;4948753;28;20058;-74
2022/06/19 07:24:54;;;;;;;9.82;1.77;;;;;;;;;;4948144;29;21701;-74
2022/06/19 07:27:21;;;;;;;13.57;1.88;;;;;;;;;;4947037;28;20137;-74
2022/06/19 07:29:48;;;;;;;9.95;2.10;;;;;;;;;;4949693;29;20491;-74
2022/06/19 07:32:16;;;;;;;13.25;2.25;;;;;;;;;;4947274;28;20114;-74
2022/06/19 07:34:43;;;;;;;9.35;1.50;;;;;;;;;;4950855;28;20163;-74
2022/06/19 07:37:11;;;;;;;8.65;1.92;;;;;;;;;;4946134;28;20047;-74
2022/06/19 07:39:38;;;;;;;8.20;1.60;;;;;;;;;;4948709;28;20062;-74
2022/06/19 07:42:08;;;;;;;10.80;1.92;;;;;;;;;;4949340;28;20047;-74
2022/06/19 07:44:35;;;;;;;10.35;1.90;;;;;;;;;;4949815;28;20734;-74
2022/06/19 07:52:33;;;;;;;9.00;1.75;;;;;;;;;;4939409;28;20137;-74
2022/06/19 07:55:01;;;;;;;9.75;1.73;;;;;;;;;;4948996;28;20062;-74
2022/06/19 07:57:29;;;;;;;9.15;1.90;;;;;;;;;;4947726;28;20621;-74
2022/06/19 07:59:56;;;;;;;8.88;1.77;;;;;;;;;;4949279;29;20554;-74
2022/06/19 08:02:24;;;;;;;5.93;1.50;;;;;;;;;;4948714;28;20058;-74
2022/06/19 08:04:51;;;;;;;5.88;1.25;;;;;;;;;;4942156;29;20139;-74
2022/06/19 08:07:19;;;;;;;7.75;1.55;;;;;;;;;;4946859;28;20063;-74
2022/06/19 08:09:47;;;;;;;10.95;1.63;;;;;;;;;;4948139;28;20066;-74
2022/06/19 08:12:14;;;;;;;7.97;1.63;;;;;;;;;;4948472;29;20054;-74
2022/06/19 08:14:43;;;;;;;14.50;1.40;;;;;;;;;;4948556;28;20071;-74
2022/06/19 08:17:10;;;;;;;7.78;1.77;;;;;;;;;;4949021;28;20070;-74
2022/06/19 08:19:37;;;;;;;9.57;1.20;;;;;;;;;;4944129;28;20062;-74
2022/06/19 08:22:05;;;;;;;6.10;1.33;;;;;;;;;;4947698;29;20051;-74
2022/06/19 08:24:32;;;;;;;7.78;1.17;;;;;;;;;;4950934;28;20506;-74
2022/06/19 08:27:00;;;;;;;6.30;1.17;;;;;;;;;;4951329;28;20062;-74
2022/06/19 08:29:27;;;;;;;8.65;1.60;;;;;;;;;;4948919;28;20051;-74
2022/06/19 08:31:55;;;;;;;6.25;1.42;;;;;;;;;;4940899;28;20063;-74
2022/06/19 08:34:23;;;;;;;6.68;1.23;;;;;;;;;;4944401;29;20059;-74
2022/06/19 08:36:50;;;;;;;6.35;1.27;;;;;;;;;;4949304;28;20056;-74
2022/06/19 08:39:19;;;;;;;6.97;1.27;;;;;;;;;;4946472;28;20491;-74
2022/06/19 08:41:51;;;;;;;4.22;0.90;;;;;;;;;;4948164;29;20039;-74
2022/06/19 08:44:33;;;;;;;12.27;1.47;;;;;;;;;;4940541;28;20055;-74
2022/06/19 08:47:08;;;;;;;6.15;1.00;;;;;;;;;;4945035;28;20353;-74
2022/06/19 08:49:41;;;;;;;5.75;1.38;;;;;;;;;;4945090;28;20110;-74
2022/06/19 08:52:08;;;;;;;;;;;;;;;;;;4951982;28;20387;-74
2022/06/19 08:54:40;;;;;;;5.28;1.33;;;;;;;;;;4946930;28;19926;-74
2022/06/19 08:57:12;;;;;;;6.68;1.13;;;;;;;;;;4946522;29;20047;-74
2022/06/19 08:59:50;;;;;;;6.93;1.27;;;;;;;;;;4943315;29;20059;-74
2022/06/19 09:02:25;;;;;;;5.13;1.20;;;;;;;;;;4944177;29;20255;-74
2022/06/19 09:07:49;;;;;;;7.90;1.45;;;;;;;;;;4951864;28;20050;-74
2022/06/19 09:10:23;;;;;;;7.07;1.65;;;;;;;;;;4951263;28;20051;-74
2022/06/19 09:12:58;;;;;;;7.22;1.38;;;;;;;;;;4951061;28;20055;-74
2022/06/19 09:15:29;;;;;;;6.88;1.70;;;;;;;;;;4946779;29;20054;-74
2022/06/19 09:18:01;;;;;;;10.15;1.95;;;;;;;;;;4950383;28;20055;-74
2022/06/19 09:20:33;;;;;;;5.47;1.40;;;;;;;;;;4949623;28;20406;-74
2022/06/19 09:23:21;;;;;;;6.35;1.48;;;;;;;;;;4950047;28;20055;-74
2022/06/19 09:25:53;;;;;;;8.32;1.48;;;;;;;;;;4945690;28;20143;-74
2022/06/19 09:28:25;;;;;;;8.63;1.42;;;;;;;;;;4950791;28;20053;-74
2022/06/19 09:30:56;;;;;;;7.07;1.33;;;;;;;;;;4950906;28;20126;-74
2022/06/19 09:33:28;;;;;;;12.18;1.88;;;;;;;;;;4951114;28;20059;-74
2022/06/19 09:35:58;;;;;;;7.90;1.40;;;;;;;;;;4929884;29;20087;-74
2022/06/19 09:38:29;;;;;;;8.48;1.52;;;;;;;;;;4933889;28;20055;-74
2022/06/19 09:40:59;;;;;;;10.38;1.65;;;;;;;;;;4932294;29;20150;-74
2022/06/19 09:43:27;;;;;;;7.50;1.45;;;;;;;;;;4935448;28;20071;-74
2022/06/19 09:45:56;;;;;;;9.50;2.00;;;;;;;;;;4931656;29;20060;-74
2022/06/19 09:48:25;;;;;;;7.57;1.67;;;;;;;;;;4935569;29;20384;-74
2022/06/19 09:50:55;;;;;;;9.38;2.00;;;;;;;;;;4929293;28;20156;-74
2022/06/19 09:53:27;;;;;;;6.10;1.40;;;;;;;;;;4936292;29;20051;-74
2022/06/19 09:55:57;;;;;;;8.37;1.50;;;;;;;;;;4933825;29;20051;-74
2022/06/19 09:58:26;;;;;;;9.00;1.98;;;;;;;;;;4930553;29;20054;-74
2022/06/19 10:00:56;;;;;;;9.80;1.70;;;;;;;;;;4934002;28;20044;-74
2022/06/19 10:03:26;;;;;;;10.45;1.70;;;;;;;;;;4935587;28;20054;-74
2022/06/19 10:05:56;;;;;;;8.45;1.95;;;;;;;;;;4933854;29;20047;-74
2022/06/19 10:08:25;;;;;;;8.63;1.80;;;;;;;;;;4933751;29;20062;-74
2022/06/19 10:10:55;;;;;;;5.15;1.60;;;;;;;;;;4934139;29;20047;-74
2022/06/19 10:13:26;;;;;;;6.18;1.50;;;;;;;;;;4931246;29;20057;-74
2022/06/19 10:15:54;;;;;;;7.75;1.30;;;;;;;;;;4933926;28;20055;-74
2022/06/19 10:18:25;;;;;;;7.90;1.30;;;;;;;;;;4933015;29;20051;-74
2022/06/19 10:20:57;;;;;;;5.40;1.50;;;;;;;;;;4933393;28;20059;-74
2022/06/19 10:23:28;;;;;;;7.73;1.70;;;;;;;;;;4931763;28;20135;-74
2022/06/19 10:26:03;;;;;;;7.47;2.15;;;;;;;;;;4934903;29;20055;-74
2022/06/19 10:28:42;;;;;;;6.07;1.60;;;;;;;;;;4930885;28;20063;-74
2022/06/19 10:31:14;;;;;;;7.00;1.40;;;;;;;;;;4934886;29;20090;-74
2022/06/19 10:33:56;;;;;;;7.13;1.83;;;;;;;;;;4931986;28;20059;-74
2022/06/19 10:36:32;;;;;;;6.68;1.73;;;;;;;;;;4932976;29;20581;-74
2022/06/19 10:39:07;;;;;;;6.72;1.40;;;;;;;;;;4932680;28;20119;-74
2022/06/19 10:44:26;;;;;;;8.75;1.77;;;;;;;;;;4929679;29;20402;-74
2022/06/19 10:47:02;;;;;;;8.07;1.80;;;;;;;;;;4934643;28;20055;-74
2022/06/19 10:49:33;;;;;;;4.95;1.70;;;;;;;;;;4933870;29;20479;-74
2022/06/19 10:52:06;;;;;;;8.40;1.70;;;;;;;;;;4931314;29;20055;-74
2022/06/19 10:54:43;;;;;;;8.60;1.67;;;;;;;;;;4938255;29;20059;-74
2022/06/19 10:57:17;;;;;;;8.68;1.98;;;;;;;;;;4933562;29;20126;-74
2022/06/19 10:59:44;;;;;;;7.57;1.95;;;;;;;;;;4932093;29;20138;-74
2022/06/19 11:05:02;;;;;;;7.00;1.88;;;;;;;;;;4931504;29;20117;-74
2022/06/19 11:07:32;;;;;;;6.10;1.70;;;;;;;;;;4934530;29;20061;-74
2022/06/19 11:10:02;;;;;;;7.63;2.00;;;;;;;;;;4930679;29;20107;-75
2022/06/19 11:12:33;;;;;;;8.73;2.03;;;;;;;;;;4932132;29;20054;-75
2022/06/19 11:15:01;;;;;;;6.97;1.67;;;;;;;;;;4930112;29;20086;-75
2022/06/19 11:17:33;;;;;;;6.32;1.55;;;;;;;;;;4934967;28;20419;-75
2022/06/19 11:20:00;;;;;;;8.40;1.60;;;;;;;;;;4927748;28;20062;-75
2022/06/19 11:22:32;;;;;;;5.50;1.30;;;;;;;;;;4932587;28;20450;-74
2022/06/19 11:25:16;;;;;;;8.88;1.58;;;;;;;;;;4930069;28;20051;-74
2022/06/19 11:27:50;;;;;;;11.00;2.00;;;;;;;;;;4931656;28;20063;-74
2022/06/19 11:30:27;;;;;;;8.60;1.50;;;;;;;;;;4930886;28;20051;-74
2022/06/19 11:32:55;;;;;;;9.27;2.13;;;;;;;;;;4931387;28;20062;-74
2022/06/19 11:35:23;;;;;;;9.48;2.00;;;;;;;;;;4928932;28;20083;-74
2022/06/19 11:37:54;;;;;;;6.75;1.70;;;;;;;;;;4930759;29;20503;-74
2022/06/19 11:40:28;;;;;;;8.15;2.00;;;;;;;;;;4930598;28;20077;-74
2022/06/19 11:42:57;;;;;;;9.93;1.95;;;;;;;;;;4932230;29;20043;-74
2022/06/19 11:45:31;;;;;;;8.27;1.88;;;;;;;;;;4932018;28;20511;-75
2022/06/19 11:48:03;;;;;;;10.18;2.10;;;;;;;;;;4931088;28;20047;-75
2022/06/19 11:50:41;;;;;;;8.57;1.90;;;;;;;;;;4927600;28;20055;-75
2022/06/19 11:53:27;;;;;;;10.02;2.20;;;;;;;;;;4931926;29;20430;-75
2022/06/19 11:56:13;;;;;;;8.85;1.85;;;;;;;;;;4930020;28;20059;-75
2022/06/19 11:58:42;;;;;;;8.32;1.90;;;;;;;;;;4930749;28;20059;-75
2022/06/19 12:01:11;;;;;;;8.55;2.05;;;;;;;;;;4929270;28;20059;-75
2022/06/19 12:03:40;;;;;;;7.82;2.03;;;;;;;;;;4930984;29;20051;-75
2022/06/19 12:06:08;;;;;;;9.13;2.10;;;;;;;;;;4929137;28;20137;-75
2022/06/19 12:08:39;;;;;;;11.13;2.10;;;;;;;;;;4924714;29;20051;-74
2022/06/19 12:11:08;;;;;;;11.32;2.40;;;;;;;;;;4932146;28;20055;-74
2022/06/19 12:13:37;;;;;;;6.93;1.80;;;;;;;;;;4930924;28;20147;-74
2022/06/19 12:16:11;;;;;;;8.27;1.92;;;;;;;;;;4931167;29;20055;-74
2022/06/19 12:18:38;;;;;;;8.63;1.98;;;;;;;;;;4932166;28;20455;-74
2022/06/19 12:21:12;;;;;;;9.90;1.98;;;;;;;;;;4930990;28;20075;-74
2022/06/19 12:23:43;;;;;;;8.68;2.00;;;;;;;;;;4932519;28;20082;-74
2022/06/19 12:26:12;;;;;;;9.07;2.28;;;;;;;;;;4928943;28;20058;-74
2022/06/19 12:28:43;;;;;;;7.07;2.03;;;;;;;;;;4926410;29;20470;-74
2022/06/19 12:31:14;;;;;;;9.90;2.50;;;;;;;;;;4931449;29;20051;-74
2022/06/19 12:33:44;;;;;;;9.80;2.15;;;;;;;;;;4929884;29;20059;-74
2022/06/19 12:36:15;;;;;;;9.65;2.45;;;;;;;;;;4934871;29;20051;-74
2022/06/19 12:38:43;;;;;;;7.25;2.05;;;;;;;;;;4933339;29;20058;-74
2022/06/19 12:41:15;;;;;;;7.63;2.17;;;;;;;;;;4937612;29;20094;-74
2022/06/19 12:43:47;;;;;;;11.45;2.78;;;;;;;;;;4931526;28;20047;-74
2022/06/19 12:46:25;;;;;;;8.57;2.10;;;;;;;;;;4928258;29;20051;-74
2022/06/19 12:48:57;;;;;;;7.72;2.30;;;;;;;;;;4924494;28;20059;-74
2022/06/19 12:51:30;;;;;;;7.83;2.40;;;;;;;;;;4934182;29;20176;-74
2022/06/19 12:54:15;;;;;;;10.95;2.60;;;;;;;;;;4931904;29;20055;-74
2022/06/19 12:56:48;;;;;;;11.25;2.40;;;;;;;;;;4932512;28;20503;-74
2022/06/19 12:59:29;;;;;;;7.53;2.20;;;;;;;;;;4930247;29;20058;-74
2022/06/19 13:02:00;;;;;;;9.25;2.53;;;;;;;;;;4931488;28;20062;-75
2022/06/19 13:04:33;;;;;;;10.10;2.65;;;;;;;;;;4929274;29;20114;-75
2022/06/19 13:07:18;;;;;;;11.00;2.70;;;;;;;;;;4931926;29;20561;-75
2022/06/19 13:10:03;;;;;;;9.95;2.67;;;;;;;;;;4916787;29;20181;-75
2022/06/19 13:12:42;;;;;;;9.25;2.70;;;;;;;;;;4926703;29;20507;-75
2022/06/19 13:15:20;;;;;;;9.35;2.50;;;;;;;;;;4935673;29;20099;-75
2022/06/19 13:17:54;;;;;;;10.38;2.88;;;;;;;;;;4933495;29;20062;-74
2022/06/19 13:20:27;;;;;;;9.52;2.70;;;;;;;;;;4933659;29;20070;-74
2022/06/19 13:23:01;;;;;;;10.00;3.10;;;;;;;;;;4931401;29;20130;-74
2022/06/19 13:25:32;;;;;;;10.50;3.13;;;;;;;;;;4934489;28;20059;-74
2022/06/19 13:28:03;;;;;;;9.68;2.53;;;;;;;;;;4932591;29;20059;-74
2022/06/19 13:30:35;;;;;;;10.73;2.80;;;;;;;;;;4929990;28;20066;-73
2022/06/19 13:33:07;;;;;;;10.98;2.63;;;;;;;;;;4927873;29;20051;-73
2022/06/19 13:35:34;;;;;;;;;;;;;;;;;;4932766;29;20060;-73
2022/06/19 13:38:25;;;;;;;10.65;2.83;;;;;;;;;;4928926;28;19927;-73
2022/06/19 13:40:54;;;;;;;7.78;2.50;;;;;;;;;;4931752;29;20110;-73
2022/06/19 13:43:37;;;;;;;11.32;2.70;;;;;;;;;;4933592;29;20478;-73
2022/06/19 13:46:12;;;;;;;13.70;3.00;;;;;;;;;;4928305;29;20125;-73
2022/06/19 13:48:43;;;;;;;9.23;2.55;;;;;;;;;;4931987;28;20051;-74
2022/06/19 13:51:15;;;;;;;10.07;2.95;;;;;;;;;;4938535;28;20247;-74
2022/06/19 13:53:46;;;;;;;14.07;2.65;;;;;;;;;;4934377;28;20521;-74
2022/06/19 13:56:20;;;;;;;13.25;2.53;;;;;;;;;;4940526;29;20058;-74
2022/06/19 13:58:53;;;;;;;13.23;2.72;;;;;;;;;;4928494;29;20047;-73
2022/06/19 14:01:26;;;;;;;10.98;2.63;;;;;;;;;;4932531;29;20075;-73
2022/06/19 14:07:19;;;;;;;11.65;3.05;;;;;;;;;;4936896;29;20058;-73
2022/06/19 14:09:47;;;;;;;11.38;2.78;;;;;;;;;;4935002;29;20051;-73
2022/06/19 14:12:16;;;;;;;12.95;3.25;;;;;;;;;;4930944;29;20557;-73
2022/06/19 14:14:45;;;;;;;13.48;2.97;;;;;;;;;;4935070;29;20490;-73
2022/06/19 14:17:21;;;;;;;12.18;3.03;;;;;;;;;;4935258;29;20051;-73
2022/06/19 14:19:52;;;;;;;13.55;3.35;;;;;;;;;;4933613;28;20070;-73
2022/06/19 14:22:23;;;;;;;12.20;2.80;;;;;;;;;;4934971;29;20043;-73
2022/06/19 14:24:59;;;;;;;11.65;3.00;;;;;;;;;;4935457;29;20144;-73
2022/06/19 14:27:41;;;;;;;14.80;3.13;;;;;;;;;;4935011;28;20050;-73
2022/06/19 14:30:11;;;;;;;10.80;2.55;;;;;;;;;;4930857;29;20059;-73
2022/06/19 14:32:50;;;;;;;10.38;2.65;;;;;;;;;;4932871;29;20047;-73
2022/06/19 14:35:24;;;;;;;13.05;2.40;;;;;;;;;;4930889;28;20053;-73
2022/06/19 14:38:06;;;;;;;9.80;2.20;;;;;;;;;;4931067;29;20066;-73
2022/06/19 14:40:51;;;;;;;10.75;2.40;;;;;;;;;;4913883;28;20087;-73
2022/06/19 14:43:21;;;;;;;11.75;2.50;;;;;;;;;;4951660;28;20047;-73
2022/06/19 14:45:53;;;;;;;11.35;2.55;;;;;;;;;;4950848;28;20047;-73
2022/06/19 14:48:25;;;;;;;9.60;2.25;;;;;;;;;;4952908;28;20372;-73
2022/06/19 14:51:00;;;;;;;11.00;2.22;;;;;;;;;;4950755;29;20665;-73
2022/06/19 14:53:36;;;;;;;8.60;2.15;;;;;;;;;;4946433;28;20114;-73
2022/06/19 14:56:22;;;;;;;11.75;2.40;;;;;;;;;;4947665;28;20070;-73
2022/06/19 14:58:51;;;;;;;6.22;2.05;;;;;;;;;;4951718;28;20051;-73
2022/06/19 15:01:24;;;;;;;8.35;2.05;;;;;;;;;;4952450;28;20055;-73
2022/06/19 15:03:57;;;;;;;6.40;1.80;;;;;;;;;;4946873;28;20059;-73
2022/06/19 15:06:38;;;;;;;11.07;2.55;;;;;;;;;;4949401;28;20059;-73
2022/06/19 15:09:07;;;;;;;8.48;2.53;;;;;;;;;;4949489;28;20406;-73